sensor_id;sensor_type;location;lat;lon;timestamp;temperature;humidity
55711;DHT22;41612;51.994;5.880;2023-10-31T00:01:13;12.30;83.80
55711;DHT22;41612;51.994;5.880;2023-10-31T00:03:40;12.30;84.00
55711;DHT22;41612;51.994;5.880;2023-10-31T00:06:09;12.30;83.90
55711;DHT22;41612;51.994;5.880;2023-10-31T00:08:39;12.20;84.10
55711;DHT22;41612;51.994;5.880;2023-10-31T00:11:06;12.20;84.30
55711;DHT22;41612;51.994;5.880;2023-10-31T00:13:53;12.20;84.10
55711;DHT22;41612;51.994;5.880;2023-10-31T00:16:23;12.20;84.40
55711;DHT22;41612;51.994;5.880;2023-10-31T00:19:34;12.20;84.30
55711;DHT22;41612;51.994;5.880;2023-10-31T00:23:04;12.10;84.30
55711;DHT22;41612;51.994;5.880;2023-10-31T00:25:30;12.20;84.40
55711;DHT22;41612;51.994;5.880;2023-10-31T00:27:58;12.20;84.20
55711;DHT22;41612;51.994;5.880;2023-10-31T00:30:24;12.20;84.30
55711;DHT22;41612;51.994;5.880;2023-10-31T00:32:49;12.20;84.30
55711;DHT22;41612;51.994;5.880;2023-10-31T00:35:15;12.20;84.20
55711;DHT22;41612;51.994;5.880;2023-10-31T00:37:46;12.10;84.30
55711;DHT22;41612;51.994;5.880;2023-10-31T00:40:15;12.10;84.30
55711;DHT22;41612;51.994;5.880;2023-10-31T00:42:42;12.10;84.30
55711;DHT22;41612;51.994;5.880;2023-10-31T00:49:59;12.10;84.10
55711;DHT22;41612;51.994;5.880;2023-10-31T00:52:26;11.90;84.40
55711;DHT22;41612;51.994;5.880;2023-10-31T00:54:56;11.90;84.50
55711;DHT22;41612;51.994;5.880;2023-10-31T00:57:22;11.90;84.50
55711;DHT22;41612;51.994;5.880;2023-10-31T00:59:48;11.90;84.60
55711;DHT22;41612;51.994;5.880;2023-10-31T01:25:02;11.60;84.60
55711;DHT22;41612;51.994;5.880;2023-10-31T01:27:33;11.60;84.60
55711;DHT22;41612;51.994;5.880;2023-10-31T01:29:59;11.60;84.60
55711;DHT22;41612;51.994;5.880;2023-10-31T01:32:27;11.60;84.70
55711;DHT22;41612;51.994;5.880;2023-10-31T01:38:55;11.60;84.70
55711;DHT22;41612;51.994;5.880;2023-10-31T01:42:01;11.50;84.70
55711;DHT22;41612;51.994;5.880;2023-10-31T01:49:42;11.40;84.90
55711;DHT22;41612;51.994;5.880;2023-10-31T01:57:13;11.40;85.30
55711;DHT22;41612;51.994;5.880;2023-10-31T01:59:39;11.40;85.40
55711;DHT22;41612;51.994;5.880;2023-10-31T02:02:06;11.40;85.30
55711;DHT22;41612;51.994;5.880;2023-10-31T02:04:33;11.40;85.40
55711;DHT22;41612;51.994;5.880;2023-10-31T02:06:59;11.40;85.30
55711;DHT22;41612;51.994;5.880;2023-10-31T02:09:25;11.40;85.20
55711;DHT22;41612;51.994;5.880;2023-10-31T02:11:54;11.40;85.30
55711;DHT22;41612;51.994;5.880;2023-10-31T02:14:28;11.40;85.30
55711;DHT22;41612;51.994;5.880;2023-10-31T02:16:54;11.40;85.30
55711;DHT22;41612;51.994;5.880;2023-10-31T02:19:21;11.40;85.20
55711;DHT22;41612;51.994;5.880;2023-10-31T02:21:47;11.40;85.30
55711;DHT22;41612;51.994;5.880;2023-10-31T02:24:13;11.40;85.40
55711;DHT22;41612;51.994;5.880;2023-10-31T02:26:39;11.40;85.50
55711;DHT22;41612;51.994;5.880;2023-10-31T02:29:05;11.40;85.50
55711;DHT22;41612;51.994;5.880;2023-10-31T02:31:33;11.50;85.40
55711;DHT22;41612;51.994;5.880;2023-10-31T02:33:59;11.40;85.40
55711;DHT22;41612;51.994;5.880;2023-10-31T02:36:25;11.40;85.40
55711;DHT22;41612;51.994;5.880;2023-10-31T02:38:51;11.40;85.50
55711;DHT22;41612;51.994;5.880;2023-10-31T02:41:19;11.40;85.50
55711;DHT22;41612;51.994;5.880;2023-10-31T02:43:45;11.50;85.50
55711;DHT22;41612;51.994;5.880;2023-10-31T02:46:11;11.50;85.50
55711;DHT22;41612;51.994;5.880;2023-10-31T02:52:26;11.50;85.60
55711;DHT22;41612;51.994;5.880;2023-10-31T02:54:54;11.50;85.50
55711;DHT22;41612;51.994;5.880;2023-10-31T03:01:14;11.50;85.30
55711;DHT22;41612;51.994;5.880;2023-10-31T03:03:41;11.50;85.20
55711;DHT22;41612;51.994;5.880;2023-10-31T03:06:09;11.50;85.50
55711;DHT22;41612;51.994;5.880;2023-10-31T03:08:35;11.40;85.60
55711;DHT22;41612;51.994;5.880;2023-10-31T03:11:04;11.40;85.80
55711;DHT22;41612;51.994;5.880;2023-10-31T03:13:31;11.30;86.10
55711;DHT22;41612;51.994;5.880;2023-10-31T03:15:57;11.30;86.20
55711;DHT22;41612;51.994;5.880;2023-10-31T03:18:23;11.20;86.50
55711;DHT22;41612;51.994;5.880;2023-10-31T03:20:54;11.20;86.60
55711;DHT22;41612;51.994;5.880;2023-10-31T03:23:20;11.20;86.80
55711;DHT22;41612;51.994;5.880;2023-10-31T03:25:46;11.10;87.20
55711;DHT22;41612;51.994;5.880;2023-10-31T03:28:19;11.20;86.90
55711;DHT22;41612;51.994;5.880;2023-10-31T03:30:48;11.20;86.90
55711;DHT22;41612;51.994;5.880;2023-10-31T03:33:17;11.20;86.90
55711;DHT22;41612;51.994;5.880;2023-10-31T03:35:46;11.20;86.90
55711;DHT22;41612;51.994;5.880;2023-10-31T03:38:13;11.20;86.90
55711;DHT22;41612;51.994;5.880;2023-10-31T03:40:39;11.20;87.00
55711;DHT22;41612;51.994;5.880;2023-10-31T03:43:06;11.20;87.00
55711;DHT22;41612;51.994;5.880;2023-10-31T03:45:37;11.20;87.10
55711;DHT22;41612;51.994;5.880;2023-10-31T03:48:02;11.20;86.90
55711;DHT22;41612;51.994;5.880;2023-10-31T03:50:29;11.20;86.80
55711;DHT22;41612;51.994;5.880;2023-10-31T03:52:56;11.20;87.10
55711;DHT22;41612;51.994;5.880;2023-10-31T03:55:21;11.20;87.10
55711;DHT22;41612;51.994;5.880;2023-10-31T03:57:48;11.20;86.90
55711;DHT22;41612;51.994;5.880;2023-10-31T04:00:15;11.20;86.70
55711;DHT22;41612;51.994;5.880;2023-10-31T04:02:44;11.30;86.50
55711;DHT22;41612;51.994;5.880;2023-10-31T04:05:10;11.30;86.40
55711;DHT22;41612;51.994;5.880;2023-10-31T04:07:36;11.30;86.40
55711;DHT22;41612;51.994;5.880;2023-10-31T04:10:03;11.30;86.40
55711;DHT22;41612;51.994;5.880;2023-10-31T04:12:29;11.20;86.50
55711;DHT22;41612;51.994;5.880;2023-10-31T04:14:55;11.20;86.40
55711;DHT22;41612;51.994;5.880;2023-10-31T04:17:21;11.20;86.60
55711;DHT22;41612;51.994;5.880;2023-10-31T04:19:46;11.20;86.50
55711;DHT22;41612;51.994;5.880;2023-10-31T04:22:12;11.20;86.30
55711;DHT22;41612;51.994;5.880;2023-10-31T04:24:38;11.20;86.20
55711;DHT22;41612;51.994;5.880;2023-10-31T04:27:05;11.30;86.20
55711;DHT22;41612;51.994;5.880;2023-10-31T04:29:36;11.30;86.10
55711;DHT22;41612;51.994;5.880;2023-10-31T04:32:03;11.30;86.20
55711;DHT22;41612;51.994;5.880;2023-10-31T04:35:07;11.30;86.00
55711;DHT22;41612;51.994;5.880;2023-10-31T04:46:16;11.30;85.80
55711;DHT22;41612;51.994;5.880;2023-10-31T04:48:42;11.30;85.80
55711;DHT22;41612;51.994;5.880;2023-10-31T04:51:08;11.30;85.70
55711;DHT22;41612;51.994;5.880;2023-10-31T04:53:33;11.30;85.70
55711;DHT22;41612;51.994;5.880;2023-10-31T04:56:00;11.30;85.60
55711;DHT22;41612;51.994;5.880;2023-10-31T04:58:51;11.40;85.50
55711;DHT22;41612;51.994;5.880;2023-10-31T05:01:35;11.30;85.40
55711;DHT22;41612;51.994;5.880;2023-10-31T05:04:01;11.30;85.50
55711;DHT22;41612;51.994;5.880;2023-10-31T05:06:27;11.30;85.40
55711;DHT22;41612;51.994;5.880;2023-10-31T05:08:54;11.30;85.40
55711;DHT22;41612;51.994;5.880;2023-10-31T05:11:21;11.30;85.40
55711;DHT22;41612;51.994;5.880;2023-10-31T05:13:47;11.30;85.30
55711;DHT22;41612;51.994;5.880;2023-10-31T05:16:15;11.30;85.30
55711;DHT22;41612;51.994;5.880;2023-10-31T05:26:14;11.20;85.40
55711;DHT22;41612;51.994;5.880;2023-10-31T05:28:45;11.20;85.60
55711;DHT22;41612;51.994;5.880;2023-10-31T05:31:15;11.20;85.60
55711;DHT22;41612;51.994;5.880;2023-10-31T05:33:42;11.30;85.50
55711;DHT22;41612;51.994;5.880;2023-10-31T05:39:55;11.30;85.40
55711;DHT22;41612;51.994;5.880;2023-10-31T05:42:21;11.30;85.30
55711;DHT22;41612;51.994;5.880;2023-10-31T05:44:51;11.30;85.30
55711;DHT22;41612;51.994;5.880;2023-10-31T05:47:18;11.30;85.40
55711;DHT22;41612;51.994;5.880;2023-10-31T05:49:58;11.20;85.40
55711;DHT22;41612;51.994;5.880;2023-10-31T05:52:31;11.20;85.60
55711;DHT22;41612;51.994;5.880;2023-10-31T05:54:57;11.10;85.70
55711;DHT22;41612;51.994;5.880;2023-10-31T05:57:23;11.10;85.80
55711;DHT22;41612;51.994;5.880;2023-10-31T05:59:53;11.00;85.90
55711;DHT22;41612;51.994;5.880;2023-10-31T06:02:22;11.00;85.90
55711;DHT22;41612;51.994;5.880;2023-10-31T06:04:52;11.00;86.00
55711;DHT22;41612;51.994;5.880;2023-10-31T06:07:18;10.90;86.00
55711;DHT22;41612;51.994;5.880;2023-10-31T06:09:48;10.90;86.20
55711;DHT22;41612;51.994;5.880;2023-10-31T06:12:16;10.90;86.40
55711;DHT22;41612;51.994;5.880;2023-10-31T06:14:41;10.80;86.30
55711;DHT22;41612;51.994;5.880;2023-10-31T06:17:07;10.80;86.30
55711;DHT22;41612;51.994;5.880;2023-10-31T06:19:37;10.70;86.40
55711;DHT22;41612;51.994;5.880;2023-10-31T06:22:07;10.70;86.50
55711;DHT22;41612;51.994;5.880;2023-10-31T06:24:51;10.70;86.50
55711;DHT22;41612;51.994;5.880;2023-10-31T06:27:27;10.70;86.60
55711;DHT22;41612;51.994;5.880;2023-10-31T06:30:06;10.60;86.60
55711;DHT22;41612;51.994;5.880;2023-10-31T06:32:56;10.60;86.70
55711;DHT22;41612;51.994;5.880;2023-10-31T06:35:27;10.60;86.80
55711;DHT22;41612;51.994;5.880;2023-10-31T06:37:55;10.50;86.80
55711;DHT22;41612;51.994;5.880;2023-10-31T06:40:29;10.60;86.80
55711;DHT22;41612;51.994;5.880;2023-10-31T06:43:14;10.60;86.80
55711;DHT22;41612;51.994;5.880;2023-10-31T06:45:45;10.60;86.80
55711;DHT22;41612;51.994;5.880;2023-10-31T06:48:10;10.60;86.90
55711;DHT22;41612;51.994;5.880;2023-10-31T06:50:36;10.60;86.90
55711;DHT22;41612;51.994;5.880;2023-10-31T06:53:03;10.60;86.80
55711;DHT22;41612;51.994;5.880;2023-10-31T06:55:34;10.70;86.80
55711;DHT22;41612;51.994;5.880;2023-10-31T06:58:00;10.70;86.80
55711;DHT22;41612;51.994;5.880;2023-10-31T07:00:26;10.70;86.90
55711;DHT22;41612;51.994;5.880;2023-10-31T07:02:52;10.70;86.90
55711;DHT22;41612;51.994;5.880;2023-10-31T07:05:19;10.70;86.90
55711;DHT22;41612;51.994;5.880;2023-10-31T07:07:46;10.70;86.90
55711;DHT22;41612;51.994;5.880;2023-10-31T07:10:12;10.70;86.90
55711;DHT22;41612;51.994;5.880;2023-10-31T07:12:38;10.70;87.00
55711;DHT22;41612;51.994;5.880;2023-10-31T07:15:07;10.80;87.00
55711;DHT22;41612;51.994;5.880;2023-10-31T07:17:33;10.80;87.10
55711;DHT22;41612;51.994;5.880;2023-10-31T07:19:58;10.80;87.30
55711;DHT22;41612;51.994;5.880;2023-10-31T07:22:24;10.80;87.30
55711;DHT22;41612;51.994;5.880;2023-10-31T07:24:51;10.80;87.20
55711;DHT22;41612;51.994;5.880;2023-10-31T07:27:17;10.80;87.20
55711;DHT22;41612;51.994;5.880;2023-10-31T07:29:43;10.80;87.00
55711;DHT22;41612;51.994;5.880;2023-10-31T07:32:10;10.80;87.20
55711;DHT22;41612;51.994;5.880;2023-10-31T07:34:36;10.80;87.40
55711;DHT22;41612;51.994;5.880;2023-10-31T07:37:03;10.80;87.40
55711;DHT22;41612;51.994;5.880;2023-10-31T07:39:29;10.80;87.10
55711;DHT22;41612;51.994;5.880;2023-10-31T07:41:54;10.90;86.90
55711;DHT22;41612;51.994;5.880;2023-10-31T07:44:24;11.00;86.90
55711;DHT22;41612;51.994;5.880;2023-10-31T07:46:52;11.00;86.80
55711;DHT22;41612;51.994;5.880;2023-10-31T07:49:18;11.00;86.80
55711;DHT22;41612;51.994;5.880;2023-10-31T07:51:47;11.10;86.30
55711;DHT22;41612;51.994;5.880;2023-10-31T07:54:14;11.10;86.70
55711;DHT22;41612;51.994;5.880;2023-10-31T07:56:40;11.10;86.70
55711;DHT22;41612;51.994;5.880;2023-10-31T07:59:09;11.20;86.70
55711;DHT22;41612;51.994;5.880;2023-10-31T08:01:37;11.20;86.50
55711;DHT22;41612;51.994;5.880;2023-10-31T08:04:03;11.30;86.30
55711;DHT22;41612;51.994;5.880;2023-10-31T08:06:29;11.30;86.50
55711;DHT22;41612;51.994;5.880;2023-10-31T08:08:55;11.30;86.20
55711;DHT22;41612;51.994;5.880;2023-10-31T08:11:21;11.40;85.70
55711;DHT22;41612;51.994;5.880;2023-10-31T08:13:48;11.40;86.00
55711;DHT22;41612;51.994;5.880;2023-10-31T08:16:20;11.40;86.10
55711;DHT22;41612;51.994;5.880;2023-10-31T08:18:48;11.60;85.70
55711;DHT22;41612;51.994;5.880;2023-10-31T08:21:14;11.80;85.30
55711;DHT22;41612;51.994;5.880;2023-10-31T08:23:41;11.90;84.90
55711;DHT22;41612;51.994;5.880;2023-10-31T08:26:09;12.10;85.10
55711;DHT22;41612;51.994;5.880;2023-10-31T08:28:36;12.20;84.40
55711;DHT22;41612;51.994;5.880;2023-10-31T08:31:02;12.20;83.40
55711;DHT22;41612;51.994;5.880;2023-10-31T08:33:29;12.30;84.20
55711;DHT22;41612;51.994;5.880;2023-10-31T08:35:56;12.30;84.20
55711;DHT22;41612;51.994;5.880;2023-10-31T08:38:23;12.30;84.40
55711;DHT22;41612;51.994;5.880;2023-10-31T08:40:49;12.30;83.70
55711;DHT22;41612;51.994;5.880;2023-10-31T08:43:15;12.50;84.10
55711;DHT22;41612;51.994;5.880;2023-10-31T08:45:42;12.50;83.70
55711;DHT22;41612;51.994;5.880;2023-10-31T08:48:08;12.60;82.60
55711;DHT22;41612;51.994;5.880;2023-10-31T08:50:34;12.70;82.80
55711;DHT22;41612;51.994;5.880;2023-10-31T08:53:00;12.70;82.60
55711;DHT22;41612;51.994;5.880;2023-10-31T08:55:27;12.80;82.60
55711;DHT22;41612;51.994;5.880;2023-10-31T08:57:53;12.80;81.70
55711;DHT22;41612;51.994;5.880;2023-10-31T09:00:19;12.80;82.10
55711;DHT22;41612;51.994;5.880;2023-10-31T09:02:45;12.80;82.00
55711;DHT22;41612;51.994;5.880;2023-10-31T09:05:11;12.80;82.70
55711;DHT22;41612;51.994;5.880;2023-10-31T09:07:37;12.90;81.70
55711;DHT22;41612;51.994;5.880;2023-10-31T09:10:04;13.00;81.70
55711;DHT22;41612;51.994;5.880;2023-10-31T09:12:31;13.20;80.90
55711;DHT22;41612;51.994;5.880;2023-10-31T09:14:58;13.30;82.00
55711;DHT22;41612;51.994;5.880;2023-10-31T09:17:23;13.40;81.40
55711;DHT22;41612;51.994;5.880;2023-10-31T09:19:49;13.30;80.40
55711;DHT22;41612;51.994;5.880;2023-10-31T09:22:15;13.50;81.10
55711;DHT22;41612;51.994;5.880;2023-10-31T09:24:41;13.50;81.20
55711;DHT22;41612;51.994;5.880;2023-10-31T09:27:08;13.60;81.40
55711;DHT22;41612;51.994;5.880;2023-10-31T09:29:37;13.60;80.90
55711;DHT22;41612;51.994;5.880;2023-10-31T09:32:04;13.70;80.60
55711;DHT22;41612;51.994;5.880;2023-10-31T09:34:31;13.70;80.40
55711;DHT22;41612;51.994;5.880;2023-10-31T09:36:58;13.70;78.20
55711;DHT22;41612;51.994;5.880;2023-10-31T09:39:24;13.70;80.10
55711;DHT22;41612;51.994;5.880;2023-10-31T09:41:49;13.60;80.00
55711;DHT22;41612;51.994;5.880;2023-10-31T09:44:15;13.50;79.60
55711;DHT22;41612;51.994;5.880;2023-10-31T09:46:41;13.40;80.50
55711;DHT22;41612;51.994;5.880;2023-10-31T09:49:08;13.30;79.70
55711;DHT22;41612;51.994;5.880;2023-10-31T09:51:34;13.30;80.30
55711;DHT22;41612;51.994;5.880;2023-10-31T09:54:02;13.30;79.90
55711;DHT22;41612;51.994;5.880;2023-10-31T09:56:28;13.50;80.10
55711;DHT22;41612;51.994;5.880;2023-10-31T09:59:00;13.60;80.20
55711;DHT22;41612;51.994;5.880;2023-10-31T10:01:28;13.60;79.10
55711;DHT22;41612;51.994;5.880;2023-10-31T10:03:54;13.60;79.10
55711;DHT22;41612;51.994;5.880;2023-10-31T10:06:23;13.60;79.00
55711;DHT22;41612;51.994;5.880;2023-10-31T10:08:49;13.70;78.70
55711;DHT22;41612;51.994;5.880;2023-10-31T10:11:15;13.70;78.70
55711;DHT22;41612;51.994;5.880;2023-10-31T10:13:42;13.50;77.70
55711;DHT22;41612;51.994;5.880;2023-10-31T10:16:09;13.50;78.20
55711;DHT22;41612;51.994;5.880;2023-10-31T10:18:37;13.40;78.50
55711;DHT22;41612;51.994;5.880;2023-10-31T10:21:06;13.40;78.70
55711;DHT22;41612;51.994;5.880;2023-10-31T10:23:33;13.40;79.20
55711;DHT22;41612;51.994;5.880;2023-10-31T10:26:00;13.30;79.60
55711;DHT22;41612;51.994;5.880;2023-10-31T10:28:26;13.30;79.60
55711;DHT22;41612;51.994;5.880;2023-10-31T10:30:53;13.40;79.70
55711;DHT22;41612;51.994;5.880;2023-10-31T10:33:19;13.70;79.70
55711;DHT22;41612;51.994;5.880;2023-10-31T10:35:45;14.00;79.60
55711;DHT22;41612;51.994;5.880;2023-10-31T10:38:13;14.20;78.70
55711;DHT22;41612;51.994;5.880;2023-10-31T10:40:47;14.40;78.40
55711;DHT22;41612;51.994;5.880;2023-10-31T10:43:27;14.60;77.80
55711;DHT22;41612;51.994;5.880;2023-10-31T10:45:56;14.60;76.50
55711;DHT22;41612;51.994;5.880;2023-10-31T10:48:24;14.50;76.80
55711;DHT22;41612;51.994;5.880;2023-10-31T10:50:57;14.80;77.70
55711;DHT22;41612;51.994;5.880;2023-10-31T10:53:29;15.00;75.90
55711;DHT22;41612;51.994;5.880;2023-10-31T10:56:09;15.00;75.30
55711;DHT22;41612;51.994;5.880;2023-10-31T10:58:51;15.00;75.90
55711;DHT22;41612;51.994;5.880;2023-10-31T11:01:19;15.40;75.40
55711;DHT22;41612;51.994;5.880;2023-10-31T11:03:47;15.50;73.90
55711;DHT22;41612;51.994;5.880;2023-10-31T11:06:14;15.20;73.80
55711;DHT22;41612;51.994;5.880;2023-10-31T11:08:41;15.10;73.90
55711;DHT22;41612;51.994;5.880;2023-10-31T11:11:08;14.90;74.60
55711;DHT22;41612;51.994;5.880;2023-10-31T11:13:38;14.80;75.30
55711;DHT22;41612;51.994;5.880;2023-10-31T11:16:13;14.60;75.60
55711;DHT22;41612;51.994;5.880;2023-10-31T11:18:42;14.30;76.20
55711;DHT22;41612;51.994;5.880;2023-10-31T11:21:08;14.20;76.60
55711;DHT22;41612;51.994;5.880;2023-10-31T11:23:35;14.20;76.70
55711;DHT22;41612;51.994;5.880;2023-10-31T11:26:01;14.20;77.50
55711;DHT22;41612;51.994;5.880;2023-10-31T11:28:27;14.20;78.00
55711;DHT22;41612;51.994;5.880;2023-10-31T11:30:54;14.20;78.40
55711;DHT22;41612;51.994;5.880;2023-10-31T11:33:24;14.00;78.40
55711;DHT22;41612;51.994;5.880;2023-10-31T11:36:03;14.10;77.80
55711;DHT22;41612;51.994;5.880;2023-10-31T11:38:36;14.20;78.20
55711;DHT22;41612;51.994;5.880;2023-10-31T11:41:05;14.20;77.30
55711;DHT22;41612;51.994;5.880;2023-10-31T11:43:50;15.00;77.40
55711;DHT22;41612;51.994;5.880;2023-10-31T11:46:21;16.60;74.40
55711;DHT22;41612;51.994;5.880;2023-10-31T11:48:52;18.00;67.90
55711;DHT22;41612;51.994;5.880;2023-10-31T11:51:25;17.90;66.30
55711;DHT22;41612;51.994;5.880;2023-10-31T11:57:28;16.80;68.30
55711;DHT22;41612;51.994;5.880;2023-10-31T11:59:57;16.10;70.40
55711;DHT22;41612;51.994;5.880;2023-10-31T12:02:23;15.70;71.60
55711;DHT22;41612;51.994;5.880;2023-10-31T12:04:49;15.40;72.00
55711;DHT22;41612;51.994;5.880;2023-10-31T12:07:14;15.30;72.20
55711;DHT22;41612;51.994;5.880;2023-10-31T12:09:47;15.20;72.40
55711;DHT22;41612;51.994;5.880;2023-10-31T12:12:14;15.10;73.60
55711;DHT22;41612;51.994;5.880;2023-10-31T12:14:39;15.80;72.20
55711;DHT22;41612;51.994;5.880;2023-10-31T12:17:05;16.30;70.00
55711;DHT22;41612;51.994;5.880;2023-10-31T12:19:33;16.50;69.20
55711;DHT22;41612;51.994;5.880;2023-10-31T12:21:58;16.30;69.00
55711;DHT22;41612;51.994;5.880;2023-10-31T12:24:24;16.20;69.80
55711;DHT22;41612;51.994;5.880;2023-10-31T12:26:50;16.10;70.70
55711;DHT22;41612;51.994;5.880;2023-10-31T12:29:18;16.10;69.80
55711;DHT22;41612;51.994;5.880;2023-10-31T12:31:45;15.80;69.80
55711;DHT22;41612;51.994;5.880;2023-10-31T12:34:11;15.30;71.20
55711;DHT22;41612;51.994;5.880;2023-10-31T12:36:38;14.80;72.50
55711;DHT22;41612;51.994;5.880;2023-10-31T12:39:05;14.50;73.60
55711;DHT22;41612;51.994;5.880;2023-10-31T12:41:35;14.30;74.50
55711;DHT22;41612;51.994;5.880;2023-10-31T12:44:01;14.30;74.80
55711;DHT22;41612;51.994;5.880;2023-10-31T12:46:28;14.20;75.10
55711;DHT22;41612;51.994;5.880;2023-10-31T12:48:58;14.10;75.30
55711;DHT22;41612;51.994;5.880;2023-10-31T12:51:24;14.00;75.60
55711;DHT22;41612;51.994;5.880;2023-10-31T12:53:51;13.90;76.00
55711;DHT22;41612;51.994;5.880;2023-10-31T12:56:39;13.80;76.30
55711;DHT22;41612;51.994;5.880;2023-10-31T12:59:11;13.80;76.60
55711;DHT22;41612;51.994;5.880;2023-10-31T13:01:43;13.70;77.00
55711;DHT22;41612;51.994;5.880;2023-10-31T13:04:27;13.70;77.30
55711;DHT22;41612;51.994;5.880;2023-10-31T13:07:06;13.70;77.60
55711;DHT22;41612;51.994;5.880;2023-10-31T13:09:54;13.70;77.60
55711;DHT22;41612;51.994;5.880;2023-10-31T13:12:22;13.70;78.20
55711;DHT22;41612;51.994;5.880;2023-10-31T13:14:58;13.70;78.20
55711;DHT22;41612;51.994;5.880;2023-10-31T13:17:24;13.70;77.90
55711;DHT22;41612;51.994;5.880;2023-10-31T13:19:50;13.70;78.10
55711;DHT22;41612;51.994;5.880;2023-10-31T13:22:19;13.70;78.60
55711;DHT22;41612;51.994;5.880;2023-10-31T13:24:49;13.60;79.20
55711;DHT22;41612;51.994;5.880;2023-10-31T13:27:16;13.60;79.40
55711;DHT22;41612;51.994;5.880;2023-10-31T13:29:45;14.20;78.90
55711;DHT22;41612;51.994;5.880;2023-10-31T13:32:13;15.00;75.90
55711;DHT22;41612;51.994;5.880;2023-10-31T13:34:41;15.30;74.60
55711;DHT22;41612;51.994;5.880;2023-10-31T13:37:16;15.30;73.90
55711;DHT22;41612;51.994;5.880;2023-10-31T13:39:58;15.40;73.00
55711;DHT22;41612;51.994;5.880;2023-10-31T13:42:30;15.20;73.00
55711;DHT22;41612;51.994;5.880;2023-10-31T13:45:18;14.90;73.70
55711;DHT22;41612;51.994;5.880;2023-10-31T14:04:06;13.90;76.60
55711;DHT22;41612;51.994;5.880;2023-10-31T14:06:41;13.80;76.60
55711;DHT22;41612;51.994;5.880;2023-10-31T14:09:14;13.70;77.00
55711;DHT22;41612;51.994;5.880;2023-10-31T14:11:47;13.50;77.20
55711;DHT22;41612;51.994;5.880;2023-10-31T14:14:32;13.40;77.50
55711;DHT22;41612;51.994;5.880;2023-10-31T14:17:33;13.30;77.90
55711;DHT22;41612;51.994;5.880;2023-10-31T14:20:28;13.30;77.90
55711;DHT22;41612;51.994;5.880;2023-10-31T14:23:25;13.30;78.10
55711;DHT22;41612;51.994;5.880;2023-10-31T14:26:05;13.30;77.90
55711;DHT22;41612;51.994;5.880;2023-10-31T14:28:43;13.30;77.80
55711;DHT22;41612;51.994;5.880;2023-10-31T14:31:43;13.30;77.80
55711;DHT22;41612;51.994;5.880;2023-10-31T14:34:11;13.50;77.90
55711;DHT22;41612;51.994;5.880;2023-10-31T14:36:37;13.60;77.60
55711;DHT22;41612;51.994;5.880;2023-10-31T14:39:15;13.60;77.20
55711;DHT22;41612;51.994;5.880;2023-10-31T14:41:42;13.60;77.20
55711;DHT22;41612;51.994;5.880;2023-10-31T14:44:11;13.70;77.20
55711;DHT22;41612;51.994;5.880;2023-10-31T14:46:38;13.70;77.20
55711;DHT22;41612;51.994;5.880;2023-10-31T14:49:05;13.60;77.40
55711;DHT22;41612;51.994;5.880;2023-10-31T14:51:31;13.50;77.60
55711;DHT22;41612;51.994;5.880;2023-10-31T14:53:56;13.50;77.90
55711;DHT22;41612;51.994;5.880;2023-10-31T14:56:27;13.50;78.10
55711;DHT22;41612;51.994;5.880;2023-10-31T14:58:58;13.50;78.30
55711;DHT22;41612;51.994;5.880;2023-10-31T15:01:24;13.50;78.40
55711;DHT22;41612;51.994;5.880;2023-10-31T15:03:50;13.40;78.30
55711;DHT22;41612;51.994;5.880;2023-10-31T15:06:18;13.30;78.30
55711;DHT22;41612;51.994;5.880;2023-10-31T15:08:47;13.30;78.50
55711;DHT22;41612;51.994;5.880;2023-10-31T15:11:13;13.30;78.60
55711;DHT22;41612;51.994;5.880;2023-10-31T15:13:42;13.30;78.60
55711;DHT22;41612;51.994;5.880;2023-10-31T15:16:08;13.30;78.40
55711;DHT22;41612;51.994;5.880;2023-10-31T15:18:34;13.20;78.30
55711;DHT22;41612;51.994;5.880;2023-10-31T15:20:59;13.20;78.10
55711;DHT22;41612;51.994;5.880;2023-10-31T15:23:26;13.10;78.20
55711;DHT22;41612;51.994;5.880;2023-10-31T15:25:57;13.10;78.40
55711;DHT22;41612;51.994;5.880;2023-10-31T15:28:24;13.10;78.80
55711;DHT22;41612;51.994;5.880;2023-10-31T15:30:56;13.10;78.70
55711;DHT22;41612;51.994;5.880;2023-10-31T15:33:27;13.00;78.60
55711;DHT22;41612;51.994;5.880;2023-10-31T15:35:58;13.00;79.00
55711;DHT22;41612;51.994;5.880;2023-10-31T15:38:24;13.00;79.00
55711;DHT22;41612;51.994;5.880;2023-10-31T15:40:52;13.00;79.00
55711;DHT22;41612;51.994;5.880;2023-10-31T15:43:18;13.00;79.20
55711;DHT22;41612;51.994;5.880;2023-10-31T15:45:44;13.00;79.40
55711;DHT22;41612;51.994;5.880;2023-10-31T15:48:17;13.00;79.60
55711;DHT22;41612;51.994;5.880;2023-10-31T15:50:45;13.00;79.80
55711;DHT22;41612;51.994;5.880;2023-10-31T15:53:21;13.00;79.70
55711;DHT22;41612;51.994;5.880;2023-10-31T15:55:51;12.90;80.00
55711;DHT22;41612;51.994;5.880;2023-10-31T15:58:19;12.90;80.10
55711;DHT22;41612;51.994;5.880;2023-10-31T16:00:45;12.90;80.40
55711;DHT22;41612;51.994;5.880;2023-10-31T16:03:13;12.80;80.70
55711;DHT22;41612;51.994;5.880;2023-10-31T16:05:39;12.80;81.00
55711;DHT22;41612;51.994;5.880;2023-10-31T16:08:14;12.80;81.10
55711;DHT22;41612;51.994;5.880;2023-10-31T16:10:53;12.70;81.30
55711;DHT22;41612;51.994;5.880;2023-10-31T16:13:27;12.70;81.40
55711;DHT22;41612;51.994;5.880;2023-10-31T16:16:01;12.70;81.50
55711;DHT22;41612;51.994;5.880;2023-10-31T16:18:33;12.60;81.70
55711;DHT22;41612;51.994;5.880;2023-10-31T16:21:26;12.60;81.70
55711;DHT22;41612;51.994;5.880;2023-10-31T16:24:01;12.60;81.70
55711;DHT22;41612;51.994;5.880;2023-10-31T16:26:27;12.60;81.90
55711;DHT22;41612;51.994;5.880;2023-10-31T16:28:52;12.50;81.90
55711;DHT22;41612;51.994;5.880;2023-10-31T16:31:18;12.50;82.10
55711;DHT22;41612;51.994;5.880;2023-10-31T16:33:48;12.50;82.20
55711;DHT22;41612;51.994;5.880;2023-10-31T16:36:14;12.50;82.30
55711;DHT22;41612;51.994;5.880;2023-10-31T16:38:43;12.50;82.20
55711;DHT22;41612;51.994;5.880;2023-10-31T16:41:09;12.50;82.30
55711;DHT22;41612;51.994;5.880;2023-10-31T16:43:35;12.50;82.40
55711;DHT22;41612;51.994;5.880;2023-10-31T16:46:01;12.50;82.40
55711;DHT22;41612;51.994;5.880;2023-10-31T16:48:26;12.40;82.40
55711;DHT22;41612;51.994;5.880;2023-10-31T16:50:52;12.40;82.50
55711;DHT22;41612;51.994;5.880;2023-10-31T16:53:18;12.40;82.60
55711;DHT22;41612;51.994;5.880;2023-10-31T16:55:44;12.40;82.50
55711;DHT22;41612;51.994;5.880;2023-10-31T16:58:10;12.50;82.50
55711;DHT22;41612;51.994;5.880;2023-10-31T17:00:42;12.50;82.40
55711;DHT22;41612;51.994;5.880;2023-10-31T17:03:08;12.50;82.50
55711;DHT22;41612;51.994;5.880;2023-10-31T17:05:41;12.50;82.40
55711;DHT22;41612;51.994;5.880;2023-10-31T17:08:10;12.50;82.40
55711;DHT22;41612;51.994;5.880;2023-10-31T17:11:02;12.50;82.50
55711;DHT22;41612;51.994;5.880;2023-10-31T17:13:38;12.50;82.50